Aeroporto :
LOGIN :

Iscrizione | Disclaimer

   EN    FR    IT 

 










Sommario :    VFR   VFR Marginale   IFR   IFR Intensivo   IFR Molto Intensivo
Visibilità : 
Base nubi : 
>= 8 km
>= 3000ft
5 / 8 km
1000 / 3000 ft
1500m / 5 km
500 / 1000 ft
800 / 1500m
200 / 500 ft
< 800m
< 200 ft
Simboli :   Temporali  Nebbia  Neve Forte  Precipitazioni Forti  Vento > 20 kt
SIGMETs :   Varie  Temporali  Ghiacco  Turbolenza  Onda orograficha  Ceneri Vulcaniche






- Altitudine del aeroporto : 308 ft
- Codice IATA : MHG


EDFM - Mannheim-City

ULTIMO METAR :
  • 261750Z 04009KT 010V070 CAVOK 20/06 Q1033

METARs OBSOLETI :
  • 261720Z 02006KT 350V050 CAVOK 20/06 Q1033
  • 261650Z 04008KT 010V070 CAVOK 20/06 Q1033
  • 261620Z 06007KT 010V080 CAVOK 21/07 Q1033
  • 261550Z 02009KT 340V060 CAVOK 21/06 Q1033
  • 261520Z 03008KT 360V060 CAVOK 21/06 Q1033

TAF TAF EDFM
Valido dal 26 a 18 ore il 26 a 21 ore UTC


261700Z 2618/2621 05007KT CAVOK
BECMG 2618/2620 VRB03KT



MetMap, La meteo Aeronautica in un colpo d'occhio ! - Copyright ORBIFLY Dicembre 2007 - Disclaimer

ORBIFLY MET'MAP TEAM :

Programmazione e sviluppo : Alexandra Zaïnal
Concezione : Baudouin d'Aumeries
Aiuto per la programmazione : Marc-Olivier Méhu
Supporto tecnico e logistico : Manuel Goepfert
Aiuto per la traduzione : Arnaldo La Scala

Contatto : metmap@orbifly.com




FONTI E CREDITI :

   NOAA